[ [{"id":"current","city":"Tucson","state":"AZ","station":"KTUS","time":1475297580,"time_local":"2016-09-30T21:53:00-0700","timezone_offset":"-7","current_temp":"72","current_temp_c":"22","dew_point":"62","dew_point_c":"17","relative_humidity":"71","wind_speed":"6","wind_deg":"160","wind_dir":"SSE","wind_gust":"","barometer":"30.07","weather":"","conditions":"Clear","icon":21,"text_icon":"clear_night","ceiling":"Unl","visibility":"10","heat_index":"72","heat_index_c":"22","wind_chill":"72","wind_chill_c":"22","feels_like":"72","feels_like_c":"22","snow_depth":"","high_temp_6hr":"87","high_temp":"93","low_temp_6hr":"81","low_temp":"68","precip_3hr":"0.01","precip_6hr":"","precip":"0.08","coded_weather":"NSW","enhanced_weather":"","report_text":"KTUS 010453Z 16005KT 10SM CLR 22/17 A3007 RMK AO2 SLP140 T02220167 ","daynight":"N","temp_trend":"LOWER","wind_low":"6","wind_high":"","update":"2016-10-01T04:53:00+0000","image":"http://bloximages.chicago2.vip.townnews.com/tucson.com/content/tncms/live/components/lee_core_2/resources/images/weather-icons/21.png?_dc=1450868986","radar_map":"http://bloximages.chicago2.vip.townnews.com/tucson.com/shared-content/art/townnews-weather/images/southwest_loop.gif?_dc=1475299803","radar_map_us":"http://bloximages.chicago2.vip.townnews.com/tucson.com/shared-content/art/townnews-weather/images/usa_loop.gif?_dc=1475299803"}] ]